PWSweather.com
Personal Weather Stations
Station Observations

YeovilGB

Lat: 50.949, Lon: -2.627

Elevation: 70

Station Type: Vantage Pro

http://www.yeovil-weather.me.uk/

High Low Average
Temperature 54.9°F12.7°C 45.4°F7.4°C 51.3°F10.7°C
Dew Point 52.6°F11.4°C 42.4°F5.8°C 47.9°F8.8°C
Winds 20.7 mph 33.3 kmh Calm Calm 7.0 mph SSW11.3 kmh SSW
Wind Gusts 34.5 mph55.5 kmh -- 14.0 mph22.5 kmh
Humidity 95% 81% 88%
Pressure 29.17 in987.8 mb 28.80 in975.3 mb -
Precipitation 0.26 in6.6 mm - -
Hour Temp Dew Point Humidity Winds Wind Gusts Pressure Precip Precip Rate Daily Precip Total
12:00 AM 54.9°F12.7°C 52.6°F11.4°C 92% 3.5 mph SSW5.6 kmh SSW 11.5 mph18.5 kmh 29.17 in987.8 mb - 0.00 in0.0 mm 0.00 in0.0 mm
12:10 AM 54.8°F12.7°C 52.5°F11.4°C 92% 5.8 mph SW9.3 kmh SW 15.0 mph24.1 kmh 29.17 in987.8 mb - 0.00 in0.0 mm 0.00 in0.0 mm
12:20 AM 54.8°F12.7°C 52.2°F11.2°C 91% 6.9 mph SW11.1 kmh SW 15.0 mph24.1 kmh 29.17 in987.8 mb - 0.00 in0.0 mm 0.00 in0.0 mm
12:30 AM 54.7°F12.6°C 51.8°F11.0°C 90% 3.5 mph SSW5.6 kmh SSW 9.2 mph14.8 kmh 29.16 in987.5 mb - 0.00 in0.0 mm 0.00 in0.0 mm
12:40 AM 54.6°F12.6°C 51.4°F10.8°C 89% 2.3 mph SSW3.7 kmh SSW 11.5 mph18.5 kmh 29.16 in987.5 mb - 0.00 in0.0 mm 0.00 in0.0 mm
12:50 AM 54.3°F12.4°C 50.8°F10.4°C 88% 4.6 mph SSW7.4 kmh SSW 10.4 mph16.7 kmh 29.16 in987.5 mb - 0.00 in0.0 mm 0.00 in0.0 mm
01:00 AM 54.0°F12.2°C 50.5°F10.3°C 88% 3.5 mph SSW5.6 kmh SSW 12.7 mph20.4 kmh 29.16 in987.5 mb - 0.00 in0.0 mm 0.00 in0.0 mm
01:10 AM 53.7°F12.1°C 50.6°F10.3°C 89% 3.5 mph SSW5.6 kmh SSW 6.9 mph11.1 kmh 29.15 in987.1 mb - 0.00 in0.0 mm 0.00 in0.0 mm
01:20 AM 53.5°F11.9°C 50.4°F10.2°C 89% 3.5 mph S5.6 kmh S 8.1 mph13.0 kmh 29.15 in987.1 mb - 0.00 in0.0 mm 0.00 in0.0 mm
01:30 AM 53.4°F11.9°C 49.9°F9.9°C 88% 8.1 mph SSW13.0 kmh SSW 18.4 mph29.6 kmh 29.15 in987.1 mb - 0.00 in0.0 mm 0.00 in0.0 mm
01:40 AM 53.1°F11.7°C 49.0°F9.4°C 86% 5.8 mph S9.3 kmh S 11.5 mph18.5 kmh 29.14 in986.8 mb - 0.00 in0.0 mm 0.00 in0.0 mm
01:50 AM 52.8°F11.6°C 48.4°F9.1°C 85% 4.6 mph SSW7.4 kmh SSW 11.5 mph18.5 kmh 29.14 in986.8 mb - 0.00 in0.0 mm 0.00 in0.0 mm
02:00 AM 52.6°F11.4°C 48.9°F9.4°C 87% 1.2 mph SSW1.9 kmh SSW 8.1 mph13.0 kmh 29.14 in986.8 mb - 0.00 in0.0 mm 0.00 in0.0 mm
02:10 AM 52.3°F11.3°C 48.2°F9.0°C 86% 4.6 mph SSW7.4 kmh SSW 10.4 mph16.7 kmh 29.14 in986.8 mb - 0.00 in0.0 mm 0.00 in0.0 mm
02:20 AM 52.1°F11.2°C 48.0°F8.9°C 86% 8.1 mph SSW13.0 kmh SSW 12.7 mph20.4 kmh 29.14 in986.8 mb - 0.00 in0.0 mm 0.00 in0.0 mm
02:30 AM 52.1°F11.2°C 48.0°F8.9°C 86% 5.8 mph SSW9.3 kmh SSW 12.7 mph20.4 kmh 29.13 in986.5 mb - 0.00 in0.0 mm 0.00 in0.0 mm
02:40 AM 51.9°F11.1°C 47.8°F8.8°C 86% 4.6 mph S7.4 kmh S 10.4 mph16.7 kmh 29.13 in986.5 mb - 0.00 in0.0 mm 0.00 in0.0 mm
02:50 AM 51.7°F10.9°C 47.6°F8.7°C 86% 8.1 mph SSW13.0 kmh SSW 16.1 mph25.9 kmh 29.13 in986.5 mb - 0.00 in0.0 mm 0.00 in0.0 mm
03:00 AM 51.5°F10.8°C 46.5°F8.1°C 83% 10.4 mph SSW16.7 kmh SSW 18.4 mph29.6 kmh 29.13 in986.5 mb - 0.00 in0.0 mm 0.00 in0.0 mm
03:10 AM 51.4°F10.8°C 46.1°F7.8°C 82% 6.9 mph SSW11.1 kmh SSW 15.0 mph24.1 kmh 29.12 in986.1 mb - 0.00 in0.0 mm 0.00 in0.0 mm
03:20 AM 51.2°F10.7°C 45.9°F7.7°C 82% 5.8 mph S9.3 kmh S 10.4 mph16.7 kmh 29.11 in985.8 mb - 0.00 in0.0 mm 0.00 in0.0 mm
03:30 AM 50.8°F10.4°C 45.8°F7.7°C 83% 8.1 mph SSW13.0 kmh SSW 19.6 mph31.5 kmh 29.11 in985.8 mb - 0.00 in0.0 mm 0.00 in0.0 mm
03:40 AM 50.5°F10.3°C 45.5°F7.5°C 83% 4.6 mph S7.4 kmh S 19.6 mph31.5 kmh 29.10 in985.4 mb - 0.00 in0.0 mm 0.00 in0.0 mm
03:50 AM 50.3°F10.2°C 45.0°F7.2°C 82% 8.1 mph SSW13.0 kmh SSW 19.6 mph31.5 kmh 29.10 in985.4 mb - 0.00 in0.0 mm 0.00 in0.0 mm
04:00 AM 50.3°F10.2°C 45.0°F7.2°C 82% 8.1 mph SSW13.0 kmh SSW 15.0 mph24.1 kmh 29.11 in985.8 mb - 0.00 in0.0 mm 0.00 in0.0 mm
04:10 AM 50.1°F10.1°C 44.8°F7.1°C 82% 8.1 mph SSW13.0 kmh SSW 12.7 mph20.4 kmh 29.11 in985.8 mb - 0.00 in0.0 mm 0.00 in0.0 mm
04:20 AM 50.0°F10.0°C 44.7°F7.1°C 82% 6.9 mph SSW11.1 kmh SSW 12.7 mph20.4 kmh 29.10 in985.4 mb - 0.00 in0.0 mm 0.00 in0.0 mm
04:30 AM 49.9°F9.9°C 44.6°F7.0°C 82% 8.1 mph S13.0 kmh S 18.4 mph29.6 kmh 29.09 in985.1 mb - 0.00 in0.0 mm 0.00 in0.0 mm
04:40 AM 49.8°F9.9°C 44.9°F7.2°C 83% 6.9 mph S11.1 kmh S 15.0 mph24.1 kmh 29.09 in985.1 mb - 0.00 in0.0 mm 0.00 in0.0 mm
04:50 AM 50.0°F10.0°C 45.4°F7.4°C 84% 8.1 mph S13.0 kmh S 18.4 mph29.6 kmh 29.08 in984.8 mb - 0.00 in0.0 mm 0.00 in0.0 mm
05:00 AM 50.4°F10.2°C 45.7°F7.6°C 84% 5.8 mph SSW9.3 kmh SSW 15.0 mph24.1 kmh 29.07 in984.4 mb - 0.00 in0.0 mm 0.00 in0.0 mm
05:10 AM 50.6°F10.3°C 45.9°F7.7°C 84% 9.2 mph S14.8 kmh S 19.6 mph31.5 kmh 29.06 in984.1 mb - 0.00 in0.0 mm 0.00 in0.0 mm
05:20 AM 50.8°F10.4°C 46.4°F8.0°C 85% 10.4 mph S16.7 kmh S 18.4 mph29.6 kmh 29.05 in983.7 mb - 0.00 in0.0 mm 0.00 in0.0 mm
05:30 AM 51.2°F10.7°C 46.8°F8.2°C 85% 12.7 mph S20.4 kmh S 21.9 mph35.2 kmh 29.04 in983.4 mb - 0.00 in0.0 mm 0.00 in0.0 mm
05:40 AM 51.7°F10.9°C 46.7°F8.2°C 83% 12.7 mph SSW20.4 kmh SSW 23.0 mph37.0 kmh 29.03 in983.1 mb - 0.00 in0.0 mm 0.00 in0.0 mm
05:50 AM 52.0°F11.1°C 46.7°F8.2°C 82% 8.1 mph S13.0 kmh S 25.3 mph40.7 kmh 29.01 in982.4 mb - 0.00 in0.0 mm 0.00 in0.0 mm
06:00 AM 52.4°F11.3°C 47.0°F8.3°C 82% 11.5 mph S18.5 kmh S 20.7 mph33.3 kmh 29.00 in982.1 mb - 0.00 in0.0 mm 0.00 in0.0 mm
06:10 AM 52.8°F11.6°C 47.1°F8.4°C 81% 8.1 mph S13.0 kmh S 19.6 mph31.5 kmh 28.99 in981.7 mb - 0.00 in0.0 mm 0.00 in0.0 mm
06:20 AM 52.8°F11.6°C 47.8°F8.8°C 83% 16.1 mph S25.9 kmh S 27.6 mph44.4 kmh 28.97 in981.0 mb - 0.00 in0.0 mm 0.00 in0.0 mm
06:30 AM 52.7°F11.5°C 47.7°F8.7°C 83% 18.4 mph S29.6 kmh S 27.6 mph44.4 kmh 28.96 in980.7 mb - 0.00 in0.0 mm 0.00 in0.0 mm
06:40 AM 52.2°F11.2°C 47.5°F8.6°C 84% 11.5 mph S18.5 kmh S 19.6 mph31.5 kmh 28.94 in980.0 mb - 0.00 in0.0 mm 0.00 in0.0 mm
06:50 AM 51.9°F11.1°C 47.8°F8.8°C 86% 17.3 mph S27.8 kmh S 24.2 mph38.9 kmh 28.93 in979.7 mb - 0.01 in0.3 mm 0.01 in0.3 mm
07:00 AM 51.3°F10.7°C 48.2°F9.0°C 89% 17.3 mph S27.8 kmh S 24.2 mph38.9 kmh 28.91 in979.0 mb - 0.03 in0.8 mm 0.04 in1.0 mm
07:10 AM 50.1°F10.1°C 47.3°F8.5°C 90% 12.7 mph S20.4 kmh S 26.5 mph42.6 kmh 28.90 in978.7 mb - 0.04 in1.0 mm 0.07 in1.8 mm
07:20 AM 49.5°F9.7°C 47.0°F8.3°C 91% 15.0 mph S24.1 kmh S 24.2 mph38.9 kmh 28.88 in978.0 mb - 0.04 in1.0 mm 0.11 in2.8 mm
07:30 AM 49.5°F9.7°C 47.3°F8.5°C 92% 18.4 mph S29.6 kmh S 34.5 mph55.5 kmh 28.86 in977.3 mb - 0.01 in0.3 mm 0.12 in3.0 mm
07:40 AM 49.6°F9.8°C 47.7°F8.7°C 93% 17.3 mph S27.8 kmh S 27.6 mph44.4 kmh 28.84 in976.6 mb - 0.03 in0.8 mm 0.15 in3.8 mm
07:50 AM 49.5°F9.7°C 47.6°F8.7°C 93% 20.7 mph S33.3 kmh S 34.5 mph55.5 kmh 28.83 in976.3 mb - 0.03 in0.8 mm 0.18 in4.6 mm
08:00 AM 50.3°F10.2°C 48.6°F9.2°C 94% 13.8 mph S22.2 kmh S 20.7 mph33.3 kmh 28.81 in975.6 mb - 0.01 in0.3 mm 0.19 in4.8 mm
08:10 AM 51.2°F10.7°C 49.8°F9.9°C 95% 16.1 mph SSW25.9 kmh SSW 29.9 mph48.1 kmh 28.80 in975.3 mb - 0.01 in0.3 mm 0.20 in5.1 mm
08:20 AM 51.8°F11.0°C 50.4°F10.2°C 95% 18.4 mph SSW29.6 kmh SSW 27.6 mph44.4 kmh 28.80 in975.3 mb - 0.01 in0.3 mm 0.21 in5.3 mm
08:30 AM 52.1°F11.2°C 50.7°F10.4°C 95% 11.5 mph SSW18.5 kmh SSW 24.2 mph38.9 kmh 28.80 in975.3 mb - 0.01 in0.3 mm 0.21 in5.3 mm
08:40 AM 52.3°F11.3°C 50.9°F10.5°C 95% 11.5 mph S18.5 kmh S 19.6 mph31.5 kmh 28.80 in975.3 mb - 0.00 in0.0 mm 0.21 in5.3 mm
08:50 AM 52.4°F11.3°C 51.0°F10.6°C 95% 17.3 mph SSW27.8 kmh SSW 26.5 mph42.6 kmh 28.80 in975.3 mb - 0.00 in0.0 mm 0.21 in5.3 mm
09:00 AM 52.4°F11.3°C 50.8°F10.4°C 94% 10.4 mph SSW16.7 kmh SSW 19.6 mph31.5 kmh 28.80 in975.3 mb - 0.00 in0.0 mm 0.21 in5.3 mm
09:10 AM 52.6°F11.4°C 50.6°F10.3°C 93% 11.5 mph SSW18.5 kmh SSW 24.2 mph38.9 kmh 28.80 in975.3 mb - 0.00 in0.0 mm 0.21 in5.3 mm
09:20 AM 53.0°F11.7°C 50.7°F10.4°C 92% 8.1 mph S13.0 kmh S 19.6 mph31.5 kmh 28.81 in975.6 mb - 0.00 in0.0 mm 0.21 in5.3 mm
09:30 AM 53.2°F11.8°C 50.1°F10.1°C 89% 15.0 mph SW24.1 kmh SW 21.9 mph35.2 kmh 28.82 in976.0 mb - 0.00 in0.0 mm 0.21 in5.3 mm
09:40 AM 53.4°F11.9°C 49.9°F9.9°C 88% 5.8 mph SW9.3 kmh SW 21.9 mph35.2 kmh 28.83 in976.3 mb - 0.00 in0.0 mm 0.21 in5.3 mm
09:50 AM 53.4°F11.9°C 49.6°F9.8°C 87% 9.2 mph SW14.8 kmh SW 20.7 mph33.3 kmh 28.84 in976.6 mb - 0.00 in0.0 mm 0.21 in5.3 mm
10:00 AM 53.5°F11.9°C 49.7°F9.8°C 87% 6.9 mph SW11.1 kmh SW 19.6 mph31.5 kmh 28.85 in977.0 mb - 0.00 in0.0 mm 0.21 in5.3 mm
10:10 AM 53.5°F11.9°C 49.7°F9.8°C 87% 9.2 mph SSW14.8 kmh SSW 21.9 mph35.2 kmh 28.86 in977.3 mb - 0.00 in0.0 mm 0.21 in5.3 mm
10:20 AM 53.7°F12.1°C 49.9°F9.9°C 87% 12.7 mph SW20.4 kmh SW 20.7 mph33.3 kmh 28.87 in977.7 mb - 0.00 in0.0 mm 0.21 in5.3 mm
10:30 AM 53.8°F12.1°C 50.1°F10.1°C 87% 11.5 mph SW18.5 kmh SW 19.6 mph31.5 kmh 28.87 in977.7 mb - 0.00 in0.0 mm 0.21 in5.3 mm
10:40 AM 53.9°F12.2°C 50.1°F10.1°C 87% 4.6 mph SW7.4 kmh SW 13.8 mph22.2 kmh 28.88 in978.0 mb - 0.00 in0.0 mm 0.21 in5.3 mm
10:50 AM 53.9°F12.2°C 50.1°F10.1°C 87% 8.1 mph SW13.0 kmh SW 16.1 mph25.9 kmh 28.88 in978.0 mb - 0.00 in0.0 mm 0.21 in5.3 mm
11:00 AM 53.9°F12.2°C 50.1°F10.1°C 87% 4.6 mph SW7.4 kmh SW 13.8 mph22.2 kmh 28.88 in978.0 mb - 0.00 in0.0 mm 0.21 in5.3 mm
11:10 AM 53.9°F12.2°C 50.4°F10.2°C 88% 8.1 mph SW13.0 kmh SW 16.1 mph25.9 kmh 28.88 in978.0 mb - 0.00 in0.0 mm 0.21 in5.3 mm
11:20 AM 53.8°F12.1°C 50.3°F10.2°C 88% 2.3 mph SW3.7 kmh SW 13.8 mph22.2 kmh 28.88 in978.0 mb - 0.00 in0.0 mm 0.21 in5.3 mm
11:30 AM 53.5°F11.9°C 50.0°F10.0°C 88% 10.4 mph SSW16.7 kmh SSW 20.7 mph33.3 kmh 28.89 in978.3 mb - 0.00 in0.0 mm 0.21 in5.3 mm
11:40 AM 53.5°F11.9°C 50.0°F10.0°C 88% 3.5 mph SSW5.6 kmh SSW 12.7 mph20.4 kmh 28.89 in978.3 mb - 0.00 in0.0 mm 0.21 in5.3 mm
11:50 AM 53.3°F11.8°C 49.8°F9.9°C 88% 8.1 mph SW13.0 kmh SW 11.5 mph18.5 kmh 28.89 in978.3 mb - 0.00 in0.0 mm 0.21 in5.3 mm
12:00 PM 53.2°F11.8°C 50.0°F10.0°C 89% 6.9 mph SW11.1 kmh SW 16.1 mph25.9 kmh 28.89 in978.3 mb - 0.00 in0.0 mm 0.21 in5.3 mm
12:10 PM 52.9°F11.6°C 49.8°F9.9°C 89% 4.6 mph SSW7.4 kmh SSW 10.4 mph16.7 kmh 28.89 in978.3 mb - 0.00 in0.0 mm 0.21 in5.3 mm
12:20 PM 52.8°F11.6°C 49.9°F9.9°C 90% 5.8 mph SSW9.3 kmh SSW 12.7 mph20.4 kmh 28.89 in978.3 mb - 0.01 in0.3 mm 0.22 in5.6 mm
12:30 PM 52.6°F11.4°C 50.0°F10.0°C 91% 5.8 mph S9.3 kmh S 11.5 mph18.5 kmh 28.89 in978.3 mb - 0.00 in0.0 mm 0.22 in5.6 mm
12:40 PM 52.7°F11.5°C 50.4°F10.2°C 92% 9.2 mph S14.8 kmh S 12.7 mph20.4 kmh 28.89 in978.3 mb - 0.00 in0.0 mm 0.22 in5.6 mm
12:50 PM 52.9°F11.6°C 50.6°F10.3°C 92% 4.6 mph S7.4 kmh S 10.4 mph16.7 kmh 28.89 in978.3 mb - 0.00 in0.0 mm 0.22 in5.6 mm
01:00 PM 53.1°F11.7°C 50.8°F10.4°C 92% 6.9 mph S11.1 kmh S 13.8 mph22.2 kmh 28.89 in978.3 mb - 0.00 in0.0 mm 0.22 in5.6 mm
01:10 PM 53.3°F11.8°C 51.0°F10.6°C 92% 3.5 mph SSW5.6 kmh SSW 12.7 mph20.4 kmh 28.89 in978.3 mb - 0.01 in0.3 mm 0.23 in5.8 mm
01:20 PM 53.5°F11.9°C 51.5°F10.8°C 93% 4.6 mph SSW7.4 kmh SSW 13.8 mph22.2 kmh 28.89 in978.3 mb - 0.02 in0.5 mm 0.24 in6.1 mm
01:30 PM 53.5°F11.9°C 51.5°F10.8°C 93% 8.1 mph SW13.0 kmh SW 11.5 mph18.5 kmh 28.90 in978.7 mb - 0.01 in0.3 mm 0.25 in6.4 mm
01:40 PM 53.5°F11.9°C 51.6°F10.9°C 93% 9.2 mph SW14.8 kmh SW 19.6 mph31.5 kmh 28.90 in978.7 mb - 0.01 in0.3 mm 0.26 in6.6 mm
01:50 PM 53.5°F11.9°C 51.5°F10.8°C 93% 5.8 mph S9.3 kmh S 11.5 mph18.5 kmh 28.90 in978.7 mb - 0.00 in0.0 mm 0.26 in6.6 mm
02:00 PM 53.6°F12.0°C 51.3°F10.7°C 92% 6.9 mph SSW11.1 kmh SSW 15.0 mph24.1 kmh 28.90 in978.7 mb - 0.00 in0.0 mm 0.26 in6.6 mm
02:10 PM 53.5°F11.9°C 51.2°F10.7°C 92% 10.4 mph SW16.7 kmh SW 16.1 mph25.9 kmh 28.91 in979.0 mb - 0.00 in0.0 mm 0.26 in6.6 mm
02:20 PM 53.3°F11.8°C 51.0°F10.6°C 92% 4.6 mph SW7.4 kmh SW 11.5 mph18.5 kmh 28.91 in979.0 mb - 0.00 in0.0 mm 0.26 in6.6 mm
02:30 PM 53.2°F11.8°C 50.6°F10.3°C 91% 9.2 mph SW14.8 kmh SW 18.4 mph29.6 kmh 28.91 in979.0 mb - 0.00 in0.0 mm 0.26 in6.6 mm
02:40 PM 53.1°F11.7°C 50.5°F10.3°C 91% 6.9 mph SSW11.1 kmh SSW 10.4 mph16.7 kmh 28.92 in979.3 mb - 0.00 in0.0 mm 0.26 in6.6 mm
02:50 PM 53.0°F11.7°C 50.5°F10.3°C 91% 11.5 mph SW18.5 kmh SW 26.5 mph42.6 kmh 28.92 in979.3 mb - 0.00 in0.0 mm 0.26 in6.6 mm
03:00 PM 53.0°F11.7°C 50.4°F10.2°C 91% 10.4 mph SW16.7 kmh SW 19.6 mph31.5 kmh 28.92 in979.3 mb - 0.00 in0.0 mm 0.26 in6.6 mm
03:10 PM 52.8°F11.6°C 49.9°F9.9°C 90% 10.4 mph SW16.7 kmh SW 19.6 mph31.5 kmh 28.92 in979.3 mb - 0.00 in0.0 mm 0.26 in6.6 mm
03:20 PM 52.6°F11.4°C 49.8°F9.9°C 90% 6.9 mph SW11.1 kmh SW 19.6 mph31.5 kmh 28.92 in979.3 mb - 0.00 in0.0 mm 0.26 in6.6 mm
03:30 PM 52.5°F11.4°C 49.4°F9.7°C 89% 5.8 mph SW9.3 kmh SW 18.4 mph29.6 kmh 28.92 in979.3 mb - 0.00 in0.0 mm 0.26 in6.6 mm
03:40 PM 52.4°F11.3°C 49.3°F9.6°C 89% 6.9 mph SSW11.1 kmh SSW 15.0 mph24.1 kmh 28.92 in979.3 mb - 0.00 in0.0 mm 0.26 in6.6 mm
03:50 PM 52.3°F11.3°C 48.9°F9.4°C 88% 6.9 mph SW11.1 kmh SW 15.0 mph24.1 kmh 28.93 in979.7 mb - 0.00 in0.0 mm 0.26 in6.6 mm
04:00 PM 52.0°F11.1°C 48.3°F9.1°C 87% 6.9 mph SSW11.1 kmh SSW 19.6 mph31.5 kmh 28.93 in979.7 mb - 0.00 in0.0 mm 0.26 in6.6 mm
04:10 PM 51.8°F11.0°C 48.1°F8.9°C 87% 6.9 mph SSW11.1 kmh SSW 23.0 mph37.0 kmh 28.93 in979.7 mb - 0.00 in0.0 mm 0.26 in6.6 mm
04:20 PM 51.6°F10.9°C 47.9°F8.8°C 87% 5.8 mph SW9.3 kmh SW 10.4 mph16.7 kmh 28.93 in979.7 mb - 0.00 in0.0 mm 0.26 in6.6 mm
04:30 PM 51.5°F10.8°C 47.7°F8.7°C 87% 9.2 mph SSW14.8 kmh SSW 19.6 mph31.5 kmh 28.93 in979.7 mb - 0.00 in0.0 mm 0.26 in6.6 mm
04:40 PM 51.4°F10.8°C 47.7°F8.7°C 87% 8.1 mph SSW13.0 kmh SSW 12.7 mph20.4 kmh 28.92 in979.3 mb - 0.00 in0.0 mm 0.26 in6.6 mm
04:50 PM 51.3°F10.7°C 47.6°F8.7°C 87% 6.9 mph SSW11.1 kmh SSW 18.4 mph29.6 kmh 28.93 in979.7 mb - 0.00 in0.0 mm 0.26 in6.6 mm
05:00 PM 51.2°F10.7°C 47.5°F8.6°C 87% 9.2 mph SSW14.8 kmh SSW 16.1 mph25.9 kmh 28.93 in979.7 mb - 0.00 in0.0 mm 0.26 in6.6 mm
05:10 PM 50.9°F10.5°C 47.5°F8.6°C 88% 4.6 mph SSW7.4 kmh SSW 9.2 mph14.8 kmh 28.93 in979.7 mb - 0.00 in0.0 mm 0.26 in6.6 mm
05:20 PM 50.8°F10.4°C 47.7°F8.7°C 89% 4.6 mph SSW7.4 kmh SSW 11.5 mph18.5 kmh 28.93 in979.7 mb - 0.00 in0.0 mm 0.26 in6.6 mm
05:30 PM 50.6°F10.3°C 47.5°F8.6°C 89% 8.1 mph SSW13.0 kmh SSW 10.4 mph16.7 kmh 28.93 in979.7 mb - 0.00 in0.0 mm 0.26 in6.6 mm
05:40 PM 50.5°F10.3°C 47.1°F8.4°C 88% 10.4 mph SW16.7 kmh SW 15.0 mph24.1 kmh 28.93 in979.7 mb - 0.00 in0.0 mm 0.26 in6.6 mm
05:50 PM 50.4°F10.2°C 47.0°F8.3°C 88% 5.8 mph S9.3 kmh S 12.7 mph20.4 kmh 28.93 in979.7 mb - 0.00 in0.0 mm 0.26 in6.6 mm
06:00 PM 50.2°F10.1°C 47.1°F8.4°C 89% 4.6 mph SSW7.4 kmh SSW 8.1 mph13.0 kmh 28.93 in979.7 mb - 0.00 in0.0 mm 0.26 in6.6 mm
06:10 PM 50.1°F10.1°C 47.0°F8.3°C 89% 6.9 mph S11.1 kmh S 13.8 mph22.2 kmh 28.93 in979.7 mb - 0.00 in0.0 mm 0.26 in6.6 mm
06:20 PM 50.2°F10.1°C 46.8°F8.2°C 88% 8.1 mph SSW13.0 kmh SSW 12.7 mph20.4 kmh 28.93 in979.7 mb - 0.00 in0.0 mm 0.26 in6.6 mm
06:30 PM 50.2°F10.1°C 46.7°F8.2°C 88% 4.6 mph SSW7.4 kmh SSW 10.4 mph16.7 kmh 28.93 in979.7 mb - 0.00 in0.0 mm 0.26 in6.6 mm
06:40 PM 50.1°F10.1°C 47.0°F8.3°C 89% 5.8 mph SW9.3 kmh SW 15.0 mph24.1 kmh 28.93 in979.7 mb - 0.00 in0.0 mm 0.26 in6.6 mm
06:50 PM 50.1°F10.1°C 46.7°F8.2°C 88% 3.5 mph SSW5.6 kmh SSW 11.5 mph18.5 kmh 28.93 in979.7 mb - 0.00 in0.0 mm 0.26 in6.6 mm
07:00 PM 50.1°F10.1°C 46.7°F8.2°C 88% 2.3 mph SSW3.7 kmh SSW 8.1 mph13.0 kmh 28.93 in979.7 mb - 0.00 in0.0 mm 0.26 in6.6 mm
07:10 PM 50.1°F10.1°C 46.3°F7.9°C 87% 2.3 mph SSW3.7 kmh SSW 11.5 mph18.5 kmh 28.93 in979.7 mb - 0.00 in0.0 mm 0.26 in6.6 mm
07:20 PM 49.9°F9.9°C 46.2°F7.9°C 87% 2.3 mph SSW3.7 kmh SSW 11.5 mph18.5 kmh 28.93 in979.7 mb - 0.00 in0.0 mm 0.26 in6.6 mm
07:30 PM 49.7°F9.8°C 46.0°F7.8°C 87% 1.2 mph S1.9 kmh S 5.8 mph9.3 kmh 28.93 in979.7 mb - 0.00 in0.0 mm 0.26 in6.6 mm
07:40 PM 49.5°F9.7°C 45.8°F7.7°C 87% 1.2 mph SSW1.9 kmh SSW 1.2 mph1.9 kmh 28.93 in979.7 mb - 0.00 in0.0 mm 0.26 in6.6 mm
07:50 PM 49.2°F9.6°C 45.8°F7.7°C 88% Calm Calm 4.6 mph7.4 kmh 28.93 in979.7 mb - 0.00 in0.0 mm 0.26 in6.6 mm
08:00 PM 49.1°F9.5°C 45.7°F7.6°C 88% 4.6 mph SSW7.4 kmh SSW 9.2 mph14.8 kmh 28.93 in979.7 mb - 0.00 in0.0 mm 0.26 in6.6 mm
08:10 PM 48.8°F9.3°C 45.4°F7.4°C 88% 2.3 mph SW3.7 kmh SW 4.6 mph7.4 kmh 28.93 in979.7 mb - 0.00 in0.0 mm 0.26 in6.6 mm
08:20 PM 48.6°F9.2°C 45.2°F7.3°C 88% 1.2 mph S1.9 kmh S 6.9 mph11.1 kmh 28.93 in979.7 mb - 0.00 in0.0 mm 0.26 in6.6 mm
08:30 PM 48.4°F9.1°C 45.0°F7.2°C 88% 4.6 mph SSW7.4 kmh SSW 11.5 mph18.5 kmh 28.93 in979.7 mb - 0.00 in0.0 mm 0.26 in6.6 mm
08:40 PM 48.4°F9.1°C 45.0°F7.2°C 88% 2.3 mph SW3.7 kmh SW 6.9 mph11.1 kmh 28.93 in979.7 mb - 0.00 in0.0 mm 0.26 in6.6 mm
08:50 PM 48.2°F9.0°C 44.8°F7.1°C 88% Calm Calm 2.3 mph3.7 kmh 28.93 in979.7 mb - 0.00 in0.0 mm 0.26 in6.6 mm
09:00 PM 48.1°F8.9°C 44.8°F7.1°C 88% 2.3 mph SW3.7 kmh SW 4.6 mph7.4 kmh 28.93 in979.7 mb - 0.00 in0.0 mm 0.26 in6.6 mm
09:20 PM 48.4°F9.1°C 44.7°F7.1°C 87% 2.3 mph SSW3.7 kmh SSW 10.4 mph16.7 kmh 28.92 in979.3 mb - 0.00 in0.0 mm 0.26 in6.6 mm
09:30 PM 48.2°F9.0°C 44.5°F6.9°C 87% 1.2 mph S1.9 kmh S 4.6 mph7.4 kmh 28.93 in979.7 mb - 0.00 in0.0 mm 0.26 in6.6 mm
09:40 PM 47.9°F8.8°C 44.2°F6.8°C 87% Calm Calm 2.3 mph3.7 kmh 28.92 in979.3 mb - 0.00 in0.0 mm 0.26 in6.6 mm
09:50 PM 47.6°F8.7°C 44.2°F6.8°C 88% Calm Calm 1.2 mph1.9 kmh 28.92 in979.3 mb - 0.00 in0.0 mm 0.26 in6.6 mm
10:00 PM 47.3°F8.5°C 43.9°F6.6°C 88% Calm Calm 1.2 mph1.9 kmh 28.92 in979.3 mb - 0.00 in0.0 mm 0.26 in6.6 mm
10:10 PM 47.0°F8.3°C 43.6°F6.4°C 88% Calm Calm -- 28.92 in979.3 mb - 0.00 in0.0 mm 0.26 in6.6 mm
10:20 PM 46.7°F8.2°C 43.6°F6.4°C 89% Calm Calm -- 28.92 in979.3 mb - 0.00 in0.0 mm 0.26 in6.6 mm
10:30 PM 46.4°F8.0°C 43.3°F6.3°C 89% Calm Calm -- 28.91 in979.0 mb - 0.00 in0.0 mm 0.26 in6.6 mm
10:40 PM 46.2°F7.9°C 43.1°F6.2°C 89% 1.2 mph SSW1.9 kmh SSW -- 28.91 in979.0 mb - 0.00 in0.0 mm 0.26 in6.6 mm
10:50 PM 46.2°F7.9°C 43.1°F6.2°C 89% 1.2 mph SW1.9 kmh SW 3.5 mph5.6 kmh 28.91 in979.0 mb - 0.00 in0.0 mm 0.26 in6.6 mm
11:00 PM 46.2°F7.9°C 43.1°F6.2°C 89% 2.3 mph SW3.7 kmh SW 6.9 mph11.1 kmh 28.91 in979.0 mb - 0.00 in0.0 mm 0.26 in6.6 mm
11:10 PM 46.2°F7.9°C 43.1°F6.2°C 89% 1.2 mph SW1.9 kmh SW 2.3 mph3.7 kmh 28.91 in979.0 mb - 0.00 in0.0 mm 0.26 in6.6 mm
11:20 PM 46.1°F7.8°C 43.0°F6.1°C 89% Calm Calm 5.8 mph9.3 kmh 28.92 in979.3 mb - 0.00 in0.0 mm 0.26 in6.6 mm
11:30 PM 46.0°F7.8°C 42.9°F6.1°C 89% Calm Calm 3.5 mph5.6 kmh 28.92 in979.3 mb - 0.00 in0.0 mm 0.26 in6.6 mm
11:40 PM 45.8°F7.7°C 42.7°F5.9°C 89% Calm Calm -- 28.92 in979.3 mb - 0.00 in0.0 mm 0.26 in6.6 mm
11:50 PM 45.4°F7.4°C 42.4°F5.8°C 89% Calm Calm -- 28.92 in979.3 mb - 0.00 in0.0 mm 0.26 in6.6 mm